Time;durP1;ratioP1;P1;durP2;ratioP2;P2;SDS_P1;SDS_P2;PMS_P1;PMS_P2;Temp;Humidity;BMP_temperature;BMP_pressure;BME280_temperature;BME280_humidity;BME280_pressure;Samples;Min_cycle;Max_cycle;Signal;HPM_P1;HPM_P2
2022/04/18 00:01:46;;;;;;;7.57;5.35;;;;;;;6.47;65.88;101831.34;5343624;27;20111;-67
2022/04/18 00:04:18;;;;;;;7.63;5.28;;;;;;;6.47;69.62;101826.03;5343143;27;20073;-67
2022/04/18 00:06:49;;;;;;;7.30;4.68;;;;;;;6.33;66.53;101822.25;5343896;27;20735;-67
2022/04/18 00:09:20;;;;;;;8.35;4.80;;;;;;;6.43;68.33;101823.59;5345152;27;20035;-67
2022/04/18 00:11:52;;;;;;;7.93;4.93;;;;;;;6.26;69.33;101816.38;5344091;27;21744;-68
2022/04/18 00:14:24;;;;;;;8.05;4.88;;;;;;;6.27;66.10;101818.97;5342338;27;20055;-67
2022/04/18 00:16:55;;;;;;;7.22;4.95;;;;;;;6.24;67.35;101813.78;5342799;27;20145;-67
2022/04/18 00:19:26;;;;;;;6.18;4.38;;;;;;;6.16;67.19;101820.34;5343366;27;20030;-67
2022/04/18 00:21:59;;;;;;;6.53;4.40;;;;;;;6.07;65.47;101818.94;5344206;27;20033;-67
2022/04/18 00:24:30;;;;;;;9.45;5.13;;;;;;;6.06;65.88;101819.88;5345987;27;20030;-67
2022/04/18 00:27:02;;;;;;;6.78;4.65;;;;;;;6.15;67.68;101821.25;5343655;27;20042;-67
2022/04/18 00:29:33;;;;;;;6.57;4.28;;;;;;;6.08;69.71;101812.72;5340693;27;20057;-67
2022/04/18 00:32:05;;;;;;;8.85;4.45;;;;;;;6.05;67.41;101818.13;5344853;27;20026;-67
2022/04/18 00:34:36;;;;;;;7.82;4.70;;;;;;;5.93;67.60;101824.78;5339790;27;20475;-67
2022/04/18 00:37:07;;;;;;;7.35;5.05;;;;;;;5.95;69.54;101822.97;5344206;27;20027;-67
2022/04/18 00:39:39;;;;;;;7.82;4.50;;;;;;;5.86;66.89;101826.81;5343881;27;20030;-67
2022/04/18 00:42:10;;;;;;;9.07;4.65;;;;;;;5.81;67.75;101825.28;5344203;27;20115;-67
2022/04/18 00:44:41;;;;;;;6.38;4.10;;;;;;;5.76;70.29;101832.56;5341879;27;20031;-67
2022/04/18 00:47:12;;;;;;;8.13;4.35;;;;;;;5.69;68.30;101819.56;5344068;27;20125;-67
2022/04/18 00:49:44;;;;;;;6.35;3.88;;;;;;;5.70;67.29;101823.94;5341905;27;20026;-67
2022/04/18 00:52:16;;;;;;;6.70;4.47;;;;;;;5.68;70.93;101812.53;5342655;27;20030;-67
2022/04/18 00:54:47;;;;;;;9.10;4.57;;;;;;;5.58;68.21;101826.19;5344876;27;20442;-68
2022/04/18 00:57:18;;;;;;;5.90;4.00;;;;;;;5.54;67.26;101816.66;5342578;27;20569;-67
2022/04/18 00:59:50;;;;;;;7.30;4.15;;;;;;;5.55;67.19;101821.91;5342571;27;20547;-67
2022/04/18 01:02:21;;;;;;;10.00;4.50;;;;;;;5.50;69.26;101815.91;5343444;27;20749;-67
2022/04/18 01:04:52;;;;;;;5.97;4.25;;;;;;;5.55;72.70;101808.66;5345865;27;20037;-67
2022/04/18 01:07:24;;;;;;;9.15;3.80;;;;;;;5.55;70.90;101811.31;5346776;27;20027;-67
2022/04/18 01:09:55;;;;;;;5.90;3.95;;;;;;;5.46;67.63;101812.53;5345438;27;20030;-67
2022/04/18 01:12:26;;;;;;;6.40;3.80;;;;;;;5.34;67.61;101806.88;5343361;27;20515;-67
2022/04/18 01:14:58;;;;;;;8.25;4.28;;;;;;;5.42;71.12;101807.41;5345319;27;20662;-67
2022/04/18 01:17:30;;;;;;;9.05;4.43;;;;;;;5.43;70.99;101807.38;5347561;27;20287;-65
2022/04/18 01:20:01;;;;;;;5.82;3.80;;;;;;;5.26;68.00;101807.16;5347994;27;20503;-65
2022/04/18 01:22:33;;;;;;;6.25;3.50;;;;;;;5.31;67.95;101807.84;5346810;27;20058;-65
2022/04/18 01:30:45;;;;;;;5.95;3.90;;;;;;;5.36;70.83;101816.47;5342208;27;20038;-65
2022/04/18 01:33:16;;;;;;;6.80;3.92;;;;;;;5.24;71.37;101807.22;5347268;27;20050;-65
2022/04/18 01:35:47;;;;;;;7.13;3.47;;;;;;;5.12;69.08;101805.06;5347707;27;20432;-65
2022/04/18 01:38:19;;;;;;;6.07;3.67;;;;;;;5.19;72.20;101806.53;5348679;27;20400;-65
2022/04/18 01:40:50;;;;;;;7.53;3.58;;;;;;;5.21;73.42;101806.47;5340175;27;20077;-65
2022/04/18 01:43:21;;;;;;;5.72;3.53;;;;;;;5.10;71.58;101807.75;5345852;27;20031;-65
2022/04/18 01:45:52;;;;;;;5.90;3.55;;;;;;;5.06;70.83;101805.28;5345998;27;20029;-65
2022/04/18 01:48:24;;;;;;;6.10;3.42;;;;;;;4.99;69.92;101809.09;5346322;27;20056;-65
2022/04/18 01:50:55;;;;;;;9.45;4.32;;;;;;;4.95;69.03;101807.44;5348503;27;20022;-65
2022/04/18 01:53:27;;;;;;;5.88;3.60;;;;;;;4.87;70.11;101811.28;5346121;27;20128;-65
2022/04/18 01:55:59;;;;;;;6.28;3.50;;;;;;;4.91;70.39;101802.31;5341689;27;20046;-66
2022/04/18 01:58:30;;;;;;;6.13;3.65;;;;;;;4.93;71.20;101796.06;5343576;27;20161;-67
2022/04/18 02:01:02;;;;;;;5.63;3.38;;;;;;;4.79;69.21;101793.94;5342652;27;20540;-67
2022/04/18 02:03:33;;;;;;;6.60;3.45;;;;;;;4.73;69.52;101789.75;5347214;27;20023;-67
2022/04/18 02:06:05;;;;;;;6.85;3.50;;;;;;;4.78;71.51;101785.16;5343163;27;20027;-67
2022/04/18 02:08:36;;;;;;;5.30;3.25;;;;;;;4.84;72.78;101790.22;5342484;27;20077;-67
2022/04/18 02:11:17;;;;;;;6.07;4.00;;;;;;;4.83;73.79;101790.28;5343199;27;20022;-67
2022/04/18 02:13:48;;;;;;;6.07;3.70;;;;;;;4.67;69.93;101782.91;5341748;27;20034;-67
2022/04/18 02:16:20;;;;;;;5.40;3.38;;;;;;;4.79;74.20;101788.66;5342320;27;20046;-67
2022/04/18 02:18:51;;;;;;;5.22;3.13;;;;;;;4.73;73.01;101789.75;5348242;27;20061;-67
2022/04/18 02:21:23;;;;;;;4.95;3.42;;;;;;;4.61;71.90;101777.00;5344839;27;21039;-67
2022/04/18 02:23:54;;;;;;;7.55;3.60;;;;;;;4.57;70.37;101780.69;5345033;27;20026;-67
2022/04/18 02:26:26;;;;;;;6.00;3.42;;;;;;;4.55;70.58;101787.81;5343164;27;20476;-67
2022/04/18 02:28:57;;;;;;;5.93;3.45;;;;;;;4.49;70.67;101784.44;5341305;27;20026;-67
2022/04/18 02:31:28;;;;;;;6.90;3.03;;;;;;;4.48;71.32;101784.50;5343908;27;20033;-67
2022/04/18 02:33:59;;;;;;;8.07;3.30;;;;;;;4.44;69.95;101777.59;5346386;27;20019;-67
2022/04/18 02:36:31;;;;;;;6.18;3.10;;;;;;;4.46;70.21;101767.84;5348210;27;20047;-67
2022/04/18 02:39:02;;;;;;;6.88;3.53;;;;;;;4.44;73.80;101777.59;5345349;27;20027;-67
2022/04/18 02:41:33;;;;;;;7.10;3.10;;;;;;;4.28;70.78;101770.22;5345667;27;20035;-67
2022/04/18 02:44:05;;;;;;;6.68;3.25;;;;;;;4.27;70.79;101773.75;5345266;27;20142;-67
2022/04/18 02:46:36;;;;;;;7.68;3.63;;;;;;;4.38;73.97;101772.53;5344415;27;20053;-67
2022/04/18 02:49:07;;;;;;;6.18;3.55;;;;;;;4.21;72.29;101770.50;5349539;27;20026;-67
2022/04/18 02:51:38;;;;;;;7.15;3.33;;;;;;;4.20;71.33;101767.00;5324566;27;20026;-67
2022/04/18 02:54:10;;;;;;;6.20;3.50;;;;;;;4.12;71.44;101759.34;5345976;27;20027;-67
2022/04/18 02:56:41;;;;;;;6.25;3.13;;;;;;;4.07;71.55;101761.28;5347956;27;21429;-67
2022/04/18 02:59:12;;;;;;;6.28;3.40;;;;;;;4.10;71.21;101761.19;5344184;27;21700;-67
2022/04/18 03:01:43;;;;;;;8.45;3.47;;;;;;;4.12;72.71;101748.78;5343855;27;20605;-67
2022/04/18 03:04:15;;;;;;;6.25;3.45;;;;;;;4.15;73.83;101755.72;5349824;27;20045;-67
2022/04/18 03:06:46;;;;;;;7.80;3.83;;;;;;;4.04;72.23;101744.66;5347304;27;20026;-67
2022/04/18 03:09:19;;;;;;;8.52;4.60;;;;;;;4.03;72.18;101740.31;5347106;27;20640;-67
2022/04/18 03:11:50;;;;;;;9.20;4.63;;;;;;;4.06;72.76;101741.03;5345195;27;20117;-67
2022/04/18 03:14:21;;;;;;;9.55;5.63;;;;;;;4.10;75.14;101745.34;5345928;27;20092;-67
2022/04/18 03:16:52;;;;;;;9.95;5.57;;;;;;;4.02;74.73;101747.34;5343829;27;20149;-67
2022/04/18 03:19:24;;;;;;;9.65;5.38;;;;;;;3.94;72.93;101741.47;5344229;27;20045;-67
2022/04/18 03:21:55;;;;;;;10.60;5.40;;;;;;;3.97;73.22;101744.03;5345799;27;20030;-67
2022/04/18 03:24:27;;;;;;;10.35;6.20;;;;;;;3.93;73.87;101732.72;5343520;27;20560;-67
2022/04/18 03:26:58;;;;;;;12.15;6.90;;;;;;;3.88;74.19;101745.19;5347756;27;20432;-67
2022/04/18 03:29:31;;;;;;;12.35;6.70;;;;;;;3.92;74.73;101740.69;5351590;27;20432;-67
2022/04/18 03:32:03;;;;;;;12.00;6.90;;;;;;;3.88;75.50;101741.69;5345484;27;20038;-67
2022/04/18 03:34:35;;;;;;;12.55;7.78;;;;;;;3.81;75.90;101748.09;5350687;27;20079;-67
2022/04/18 03:39:56;;;;;;;14.57;8.48;;;;;;;3.67;74.63;101751.19;5343603;27;20395;-67
2022/04/18 03:42:29;;;;;;;16.38;9.93;;;;;;;3.66;74.63;101754.75;5343335;27;20035;-67
2022/04/18 03:45:04;;;;;;;17.05;9.68;;;;;;;3.64;75.36;101748.66;5346128;27;20476;-67
2022/04/18 03:47:35;;;;;;;16.27;9.77;;;;;;;3.76;77.49;101750.91;5343836;27;20110;-67
2022/04/18 03:50:07;;;;;;;18.13;11.15;;;;;;;3.56;76.38;101751.53;5344951;27;20026;-67
2022/04/18 03:52:38;;;;;;;19.40;11.98;;;;;;;3.58;75.68;101746.22;5347071;27;20221;-67
2022/04/18 03:55:11;;;;;;;18.42;11.93;;;;;;;3.63;78.03;101752.22;5345317;27;20114;-67
2022/04/18 03:57:42;;;;;;;18.73;10.75;;;;;;;3.50;76.64;101743.84;5342783;27;20161;-67
2022/04/18 04:00:14;;;;;;;17.63;9.90;;;;;;;3.53;76.94;101744.59;5342279;27;20112;-67
2022/04/18 04:02:46;;;;;;;20.02;10.95;;;;;;;3.50;77.61;101744.69;5343416;27;20077;-67
2022/04/18 04:05:17;;;;;;;16.38;10.50;;;;;;;3.49;76.70;101756.16;5343605;27;20095;-67
2022/04/18 04:07:48;;;;;;;17.25;10.75;;;;;;;3.44;76.82;101744.88;5346563;27;20031;-67
2022/04/18 04:10:19;;;;;;;15.35;9.93;;;;;;;3.35;76.02;101745.19;5347689;27;20106;-67
2022/04/18 04:12:51;;;;;;;16.77;10.85;;;;;;;3.44;79.12;101738.75;5342396;27;20030;-67
2022/04/18 04:15:23;;;;;;;18.40;11.10;;;;;;;3.43;78.68;101742.28;5343938;27;20069;-67
2022/04/18 04:17:54;;;;;;;15.70;10.48;;;;;;;3.46;79.46;101750.13;5344178;27;20134;-67
2022/04/18 04:20:25;;;;;;;16.23;9.55;;;;;;;3.43;78.56;101737.03;5343849;27;20503;-67
2022/04/18 04:22:57;;;;;;;15.88;9.98;;;;;;;3.40;79.22;101730.06;5341972;27;20034;-67
2022/04/18 04:25:28;;;;;;;16.67;8.70;;;;;;;3.23;77.30;101730.63;5347327;27;20456;-67
2022/04/18 04:27:59;;;;;;;13.73;9.40;;;;;;;3.38;80.11;101736.31;5341724;27;20062;-67
2022/04/18 04:30:30;;;;;;;12.65;8.52;;;;;;;3.36;80.16;101735.47;5341059;27;20661;-67
2022/04/18 04:33:02;;;;;;;14.07;8.02;;;;;;;3.21;78.10;101737.72;5343415;27;21537;-67
2022/04/18 04:35:33;;;;;;;12.30;7.70;;;;;;;3.18;78.70;101737.78;5344281;27;20082;-67
2022/04/18 04:38:06;;;;;;;14.32;8.20;;;;;;;3.34;81.81;101746.09;5345942;27;20027;-67
2022/04/18 04:40:37;;;;;;;13.60;7.30;;;;;;;3.29;82.22;101740.97;5345593;27;20277;-67
2022/04/18 04:43:10;;;;;;;11.52;7.15;;;;;;;3.20;79.91;101748.28;5342807;27;20042;-67
2022/04/18 04:45:41;;;;;;;12.18;7.25;;;;;;;3.12;79.30;101743.25;5344512;27;20524;-68
2022/04/18 04:48:12;;;;;;;10.95;6.72;;;;;;;3.19;79.63;101743.94;5342713;27;20033;-67
2022/04/18 04:50:43;;;;;;;11.32;6.75;;;;;;;3.13;80.03;101747.63;5343965;27;20027;-68
2022/04/18 04:53:15;;;;;;;12.00;6.70;;;;;;;3.17;80.06;101744.00;5349944;27;20109;-67
2022/04/18 04:55:46;;;;;;;9.98;5.72;;;;;;;3.08;79.58;101739.84;5348540;27;20057;-67
2022/04/18 04:58:18;;;;;;;11.10;5.93;;;;;;;3.10;79.75;101739.81;5351116;27;20037;-67
2022/04/18 05:00:49;;;;;;;9.35;5.50;;;;;;;3.09;79.68;101749.50;5348067;27;20031;-67
2022/04/18 05:03:20;;;;;;;9.40;5.30;;;;;;;3.06;79.65;101754.00;5353633;27;20036;-66
2022/04/18 05:05:52;;;;;;;8.48;4.88;;;;;;;3.05;79.10;101747.88;5349731;27;20027;-65
2022/04/18 05:08:23;;;;;;;9.27;5.25;;;;;;;3.15;81.82;101748.47;5353505;27;20095;-65
2022/04/18 05:10:55;;;;;;;8.48;4.68;;;;;;;3.10;79.89;101745.94;5353076;27;20140;-65
2022/04/18 05:13:27;;;;;;;9.75;5.18;;;;;;;3.11;80.78;101752.97;5351413;27;20030;-65
2022/04/18 05:15:58;;;;;;;9.10;6.00;;;;;;;3.20;81.88;101741.25;5351593;27;20061;-66
2022/04/18 05:18:29;;;;;;;7.45;4.78;;;;;;;3.19;80.47;101747.44;5348781;27;20716;-66
2022/04/18 05:21:00;;;;;;;8.02;4.80;;;;;;;3.26;81.05;101750.75;5351399;27;20037;-66
2022/04/18 05:23:32;;;;;;;7.88;4.80;;;;;;;3.24;79.90;101753.44;5352812;27;20026;-66
2022/04/18 05:26:03;;;;;;;6.25;4.22;;;;;;;3.33;79.29;101753.13;5334147;27;20045;-66
2022/04/18 05:28:35;;;;;;;6.60;3.92;;;;;;;3.43;78.91;101755.50;5351176;27;20035;-66
2022/04/18 05:31:06;;;;;;;6.47;4.15;;;;;;;3.42;78.42;101754.63;5350763;27;20103;-66
2022/04/18 05:33:38;;;;;;;8.18;4.60;;;;;;;3.50;78.34;101760.50;5354056;27;20034;-66
2022/04/18 05:36:09;;;;;;;5.85;3.55;;;;;;;3.54;78.71;101750.72;5352899;27;20102;-66
2022/04/18 05:38:40;;;;;;;6.85;4.13;;;;;;;3.61;77.79;101754.03;5352323;27;20034;-66
2022/04/18 05:41:12;;;;;;;8.10;4.28;;;;;;;3.71;78.18;101755.47;5349282;27;20045;-66
2022/04/18 05:43:43;;;;;;;5.75;3.72;;;;;;;3.80;77.35;101762.22;5353198;27;20030;-67
2022/04/18 05:46:15;;;;;;;7.15;4.00;;;;;;;3.89;78.05;101757.50;5350679;27;20062;-67
2022/04/18 05:48:46;;;;;;;6.88;3.78;;;;;;;3.95;77.07;101758.19;5350894;27;20557;-66
2022/04/18 05:51:18;;;;;;;6.47;3.25;;;;;;;4.01;76.54;101756.22;5346850;27;20039;-66
2022/04/18 05:53:49;;;;;;;6.43;3.63;;;;;;;4.11;76.67;101762.88;5351927;27;20038;-66
2022/04/18 05:56:20;;;;;;;7.38;3.97;;;;;;;4.28;75.85;101764.94;5350405;27;20056;-67
2022/04/18 05:58:51;;;;;;;7.47;4.15;;;;;;;4.29;75.84;101761.38;5348847;27;20038;-66
2022/04/18 06:01:23;;;;;;;6.43;3.70;;;;;;;4.44;74.42;101759.09;5343732;27;20031;-66
2022/04/18 06:03:55;;;;;;;4.60;3.13;;;;;;;4.49;74.73;101757.16;5350205;27;20484;-66
2022/04/18 06:06:26;;;;;;;5.35;3.30;;;;;;;4.64;73.75;101761.00;5348826;27;20781;-66
2022/04/18 06:08:57;;;;;;;7.32;3.50;;;;;;;4.76;73.00;101765.84;5354955;27;20023;-66
2022/04/18 06:11:29;;;;;;;5.20;3.28;;;;;;;4.88;71.76;101761.88;5354082;27;20078;-66
2022/04/18 06:14:00;;;;;;;6.30;2.97;;;;;;;5.04;71.74;101764.78;5352146;27;20365;-66
2022/04/18 06:16:31;;;;;;;5.18;3.30;;;;;;;5.15;71.02;101762.59;5351471;27;20782;-66
2022/04/18 06:19:02;;;;;;;6.65;3.53;;;;;;;5.26;70.67;101759.53;5353101;27;20046;-66
2022/04/18 06:21:34;;;;;;;6.15;3.25;;;;;;;5.42;69.88;101760.63;5353568;27;20038;-66
2022/04/18 06:24:05;;;;;;;7.47;3.13;;;;;;;5.58;69.00;101766.19;5356003;27;20034;-66
2022/04/18 06:26:36;;;;;;;4.80;3.10;;;;;;;5.75;67.75;101761.97;5352804;27;20392;-66
2022/04/18 06:29:08;;;;;;;5.22;3.03;;;;;;;5.89;67.16;101759.63;5355853;27;20084;-66
2022/04/18 06:31:39;;;;;;;5.75;3.45;;;;;;;6.05;65.93;101760.72;5353219;27;20038;-66
2022/04/18 06:34:10;;;;;;;7.97;3.58;;;;;;;6.25;64.18;101764.28;5354919;27;20023;-66
2022/04/18 06:36:41;;;;;;;6.88;3.13;;;;;;;6.32;65.68;101760.44;5353305;27;20029;-66
2022/04/18 06:39:13;;;;;;;6.47;3.30;;;;;;;6.53;63.24;101765.72;5354852;27;20053;-66
2022/04/18 06:41:44;;;;;;;5.55;3.33;;;;;;;6.70;61.97;101763.19;5352930;27;20026;-66
2022/04/18 06:44:15;;;;;;;6.18;3.55;;;;;;;6.81;64.68;101755.59;5356380;27;20034;-66
2022/04/18 06:46:46;;;;;;;5.43;3.55;;;;;;;6.92;63.36;101752.41;5356100;27;20030;-66
2022/04/18 06:49:18;;;;;;;6.47;3.15;;;;;;;7.03;64.26;101765.19;5356661;27;20034;-66
2022/04/18 06:51:49;;;;;;;4.65;2.97;;;;;;;7.17;61.54;101762.78;5353283;27;20023;-67
2022/04/18 06:54:20;;;;;;;5.60;3.33;;;;;;;7.39;59.52;101775.00;5355484;27;20165;-66
2022/04/18 06:57:01;;;;;;;5.10;3.25;;;;;;;7.57;59.71;101759.97;5351798;27;20491;-66
2022/04/18 06:59:32;;;;;;;6.28;3.42;;;;;;;7.72;58.90;101769.84;5352598;27;20051;-67
2022/04/18 07:02:04;;;;;;;5.53;2.75;;;;;;;7.91;58.75;101761.81;5350232;27;20042;-67
2022/04/18 07:04:35;;;;;;;7.70;3.00;;;;;;;8.03;57.61;101757.66;5332184;27;20027;-66
2022/04/18 07:07:08;;;;;;;8.07;2.92;;;;;;;8.17;58.37;101760.47;5355206;27;20027;-66
2022/04/18 07:09:39;;;;;;;4.10;2.50;;;;;;;8.23;58.05;101754.84;5352805;27;20484;-66
2022/04/18 07:12:10;;;;;;;5.53;2.40;;;;;;;8.43;55.36;101750.31;5355360;27;20110;-66
2022/04/18 07:14:42;;;;;;;5.65;2.63;;;;;;;8.54;55.40;101752.41;5355031;27;20070;-66
2022/04/18 07:17:13;;;;;;;3.55;2.17;;;;;;;8.66;55.99;101754.38;5349817;27;20022;-66
2022/04/18 07:19:44;;;;;;;4.28;2.42;;;;;;;8.93;54.01;101765.34;5327598;27;20497;-66
2022/04/18 07:22:16;;;;;;;5.20;2.60;;;;;;;9.06;55.44;101754.03;5355918;27;20064;-66
2022/04/18 07:24:47;;;;;;;5.55;2.67;;;;;;;9.24;54.28;101752.97;5356873;27;20038;-66
2022/04/18 07:27:18;;;;;;;6.70;2.88;;;;;;;9.42;52.88;101751.09;5353455;27;20034;-66
2022/04/18 07:29:50;;;;;;;6.10;2.70;;;;;;;9.53;55.84;101743.34;5358978;27;20026;-66
2022/04/18 07:32:21;;;;;;;4.85;2.38;;;;;;;9.69;54.64;101745.97;5356096;27;20138;-66
2022/04/18 07:34:53;;;;;;;3.85;2.30;;;;;;;9.93;50.15;101746.34;5349466;27;20071;-66
2022/04/18 07:37:24;;;;;;;5.07;2.40;;;;;;;10.09;52.04;101745.44;5354734;27;20019;-67
2022/04/18 07:39:56;;;;;;;4.88;2.10;;;;;;;10.36;50.26;101732.25;5347755;27;20534;-66
2022/04/18 07:42:27;;;;;;;4.97;2.20;;;;;;;10.53;51.20;101736.56;5346443;27;20057;-66
2022/04/18 07:44:58;;;;;;;5.53;2.22;;;;;;;10.65;50.19;101746.47;5350032;27;20654;-66
2022/04/18 07:47:30;;;;;;;4.18;2.05;;;;;;;10.79;50.64;101740.25;5353265;27;20037;-66
2022/04/18 07:50:01;;;;;;;4.68;2.30;;;;;;;11.07;47.71;101739.34;5348495;27;20030;-66
2022/04/18 07:52:32;;;;;;;4.47;2.10;;;;;;;11.20;49.19;101739.44;5352690;27;20034;-67
2022/04/18 07:55:04;;;;;;;4.10;1.85;;;;;;;11.46;47.82;101734.19;5354524;27;20079;-66
2022/04/18 07:57:37;;;;;;;4.47;2.30;;;;;;;11.65;46.23;101731.16;5357692;27;20027;-67
2022/04/18 08:00:10;;;;;;;5.18;2.10;;;;;;;11.84;45.22;101734.28;5350249;27;20043;-67
2022/04/18 08:02:41;;;;;;;4.63;2.30;;;;;;;11.94;44.90;101723.84;5355123;27;20070;-68
2022/04/18 08:05:12;;;;;;;3.47;1.98;;;;;;;12.14;43.62;101741.22;5352628;27;20113;-67
2022/04/18 08:07:43;;;;;;;4.18;2.00;;;;;;;12.32;42.81;101733.75;5358274;27;20027;-68
2022/04/18 08:10:15;;;;;;;4.35;1.90;;;;;;;12.51;43.89;101730.63;5357336;27;20042;-67
2022/04/18 08:12:46;;;;;;;3.45;2.05;;;;;;;12.64;44.84;101733.31;5356920;27;20030;-68
2022/04/18 08:15:17;;;;;;;4.70;2.15;;;;;;;12.71;41.72;101732.75;5354370;27;20129;-67
2022/04/18 08:17:49;;;;;;;3.22;2.03;;;;;;;12.86;41.93;101732.63;5356574;27;20079;-69
2022/04/18 08:20:20;;;;;;;6.15;2.10;;;;;;;13.07;42.34;101740.91;5359833;27;20022;-68
2022/04/18 08:22:51;;;;;;;5.65;1.90;;;;;;;13.09;40.40;101747.00;5355050;27;20027;-67
2022/04/18 08:25:23;;;;;;;3.38;1.95;;;;;;;13.11;41.71;101737.88;5326802;27;20031;-68
2022/04/18 08:27:54;;;;;;;3.75;2.10;;;;;;;13.33;40.40;101739.91;5351046;27;20095;-68
2022/04/18 08:30:25;;;;;;;3.22;1.77;;;;;;;13.36;40.17;101736.13;5350439;27;20034;-68
2022/04/18 08:32:57;;;;;;;4.30;2.30;;;;;;;13.67;41.85;101741.88;5355793;27;20052;-69
2022/04/18 08:35:32;;;;;;;3.80;1.90;;;;;;;13.66;40.25;101742.88;5351248;27;20026;-69
2022/04/18 08:38:03;;;;;;;5.00;2.35;;;;;;;13.60;40.55;101738.81;5357947;27;20114;-68
2022/04/18 08:40:36;;;;;;;4.40;2.10;;;;;;;13.80;38.78;101736.44;5354105;27;20107;-69
2022/04/18 08:43:08;;;;;;;4.07;2.00;;;;;;;13.87;39.72;101741.22;5353822;27;20042;-68
2022/04/18 08:45:39;;;;;;;4.00;2.00;;;;;;;13.93;40.51;101739.91;5357091;27;20042;-68
2022/04/18 08:53:56;;;;;;;4.15;1.80;;;;;;;14.39;38.54;101738.19;5346498;27;20374;-68
2022/04/18 08:56:27;;;;;;;4.68;2.08;;;;;;;14.37;38.64;101732.91;5349724;27;20023;-68
2022/04/18 08:58:59;;;;;;;4.07;2.00;;;;;;;14.45;39.71;101735.00;5353793;27;20042;-67
2022/04/18 09:01:30;;;;;;;4.28;2.10;;;;;;;14.68;36.67;101739.44;5356266;27;20026;-68
2022/04/18 09:04:02;;;;;;;3.88;1.95;;;;;;;14.89;35.90;101731.47;5346668;27;20022;-67
2022/04/18 09:06:38;;;;;;;3.22;1.75;;;;;;;14.92;37.17;101732.22;5352459;27;20082;-68
2022/04/18 09:09:09;;;;;;;4.85;2.33;;;;;;;15.04;36.09;101733.91;5355709;27;20034;-67
2022/04/18 09:11:45;;;;;;;4.65;2.10;;;;;;;15.11;36.46;101735.13;5348745;27;20023;-68
2022/04/18 09:14:17;;;;;;;4.38;2.17;;;;;;;15.26;35.82;101727.63;5352169;27;20085;-67
2022/04/18 09:16:48;;;;;;;4.28;2.30;;;;;;;15.28;36.67;101731.91;5359078;27;20106;-68
2022/04/18 09:19:20;;;;;;;4.03;2.10;;;;;;;15.37;35.67;101732.13;5353538;27;20061;-68
2022/04/18 09:21:54;;;;;;;4.72;2.28;;;;;;;15.56;36.19;101737.69;5355516;27;20577;-68
2022/04/18 09:24:34;;;;;;;4.10;2.05;;;;;;;15.58;36.99;101738.41;5346850;27;20031;-68
2022/04/18 09:27:12;;;;;;;5.10;2.15;;;;;;;15.67;35.17;101734.09;5346354;27;20031;-68
2022/04/18 09:29:43;;;;;;;4.20;1.98;;;;;;;15.65;37.27;101726.16;5344748;27;20042;-68
2022/04/18 09:32:14;;;;;;;4.78;1.73;;;;;;;15.59;35.55;101721.31;5352788;27;20031;-68
2022/04/18 09:34:46;;;;;;;3.63;2.20;;;;;;;15.63;36.37;101724.59;5353886;27;20027;-68
2022/04/18 09:37:17;;;;;;;4.55;2.25;;;;;;;15.69;35.91;101726.75;5346091;27;20018;-68
2022/04/18 09:39:53;;;;;;;3.85;2.17;;;;;;;15.66;36.76;101722.47;5361355;27;20126;-68
2022/04/18 09:42:26;;;;;;;4.93;2.58;;;;;;;15.78;36.24;101720.63;5355188;27;20022;-68
2022/04/18 09:44:58;;;;;;;4.70;1.85;;;;;;;15.93;35.96;101721.16;5351849;27;20023;-68
2022/04/18 09:47:34;;;;;;;4.15;2.38;;;;;;;16.04;37.97;101715.69;5352126;27;20045;-68
2022/04/18 09:50:58;;;;;;;4.22;2.38;;;;;;;16.03;37.43;101705.06;5360798;27;20034;-68
2022/04/18 09:53:21;;;;;;;4.65;2.25;;;;;;;16.02;36.08;101706.91;5346494;27;20107;-68
2022/04/18 09:55:54;;;;;;;4.78;2.65;;;;;;;16.06;35.81;101704.81;5343527;27;20524;-68
2022/04/18 09:58:25;;;;;;;3.92;2.42;;;;;;;16.14;35.39;101699.59;5354091;27;20026;-68
2022/04/18 10:00:59;;;;;;;4.32;2.20;;;;;;;16.27;34.45;101694.03;5347447;27;20031;-68
2022/04/18 10:03:31;;;;;;;4.88;2.47;;;;;;;16.17;36.07;101701.19;5344577;27;20485;-68
2022/04/18 10:06:04;;;;;;;3.40;2.00;;;;;;;16.29;33.94;101692.03;5355739;27;20033;-68
2022/04/18 10:08:35;;;;;;;4.97;2.83;;;;;;;16.34;35.99;101695.19;5353575;27;20107;-68
2022/04/18 10:11:08;;;;;;;4.50;2.08;;;;;;;16.38;31.59;101690.41;5346695;27;20113;-68
2022/04/18 10:13:39;;;;;;;7.45;2.67;;;;;;;16.67;32.94;101690.50;5356231;27;20043;-68
2022/04/18 10:16:13;;;;;;;3.60;2.50;;;;;;;16.50;35.66;101685.75;5350746;27;20038;-69
2022/04/18 10:18:52;;;;;;;4.25;2.35;;;;;;;16.59;33.85;101688.50;5349505;27;20456;-68
2022/04/18 10:21:31;;;;;;;4.32;2.55;;;;;;;16.66;33.22;101689.66;5357923;27;20103;-69
2022/04/18 10:24:32;;;;;;;4.10;2.40;;;;;;;16.81;33.58;101681.19;5360378;27;20030;-68
2022/04/18 10:27:33;;;;;;;4.50;2.33;;;;;;;16.91;33.99;101678.53;5355715;27;20468;-69
2022/04/18 10:30:06;;;;;;;4.63;2.85;;;;;;;16.89;32.69;101678.69;5358365;27;20400;-68
2022/04/18 10:32:38;;;;;;;3.85;2.35;;;;;;;17.08;30.31;101679.72;5358060;27;20027;-68
2022/04/18 10:35:12;;;;;;;3.88;2.35;;;;;;;17.05;33.76;101676.31;5352711;27;20037;-69
2022/04/18 10:37:44;;;;;;;4.80;2.33;;;;;;;17.19;31.73;101663.41;5354243;27;20584;-68
2022/04/18 10:40:17;;;;;;;6.57;2.85;;;;;;;17.28;30.20;101676.06;5351097;27;20101;-68
2022/04/18 10:42:49;;;;;;;4.97;2.88;;;;;;;17.23;32.85;101668.38;5343955;27;20105;-68
2022/04/18 10:45:23;;;;;;;4.32;2.67;;;;;;;17.29;30.74;101666.94;5355122;27;20087;-67
2022/04/18 10:47:54;;;;;;;4.35;2.95;;;;;;;17.19;32.37;101666.09;5351692;27;20033;-68
2022/04/18 10:50:34;;;;;;;4.90;2.53;;;;;;;17.36;30.53;101665.41;5349842;27;20022;-67
2022/04/18 10:53:11;;;;;;;3.97;2.45;;;;;;;17.22;30.08;101660.41;5354539;27;20345;-68
2022/04/18 10:55:52;;;;;;;6.10;2.55;;;;;;;17.38;32.01;101658.03;5353169;27;20499;-67
2022/04/18 10:58:24;;;;;;;5.32;3.08;;;;;;;17.42;30.35;101659.44;5357423;27;20076;-67
2022/04/18 11:00:58;;;;;;;5.90;2.88;;;;;;;17.44;30.58;101654.75;5354176;27;20038;-67
2022/04/18 11:03:38;;;;;;;4.85;2.78;;;;;;;17.46;33.11;101649.22;5357354;27;20035;-67
2022/04/18 11:06:32;;;;;;;5.78;2.80;;;;;;;17.40;30.17;101656.03;5359919;27;20488;-68
2022/04/18 11:09:09;;;;;;;4.40;2.53;;;;;;;17.47;31.36;101650.06;5352980;27;20062;-67
2022/04/18 11:11:42;;;;;;;4.43;2.60;;;;;;;17.59;29.65;101638.13;5357773;27;20034;-68
2022/04/18 11:14:31;;;;;;;4.18;2.55;;;;;;;17.79;30.09;101645.19;5354685;27;20058;-68
2022/04/18 11:17:03;;;;;;;4.05;2.60;;;;;;;17.92;28.48;101638.66;5349623;27;20035;-68
2022/04/18 11:19:42;;;;;;;4.18;2.65;;;;;;;17.77;29.70;101636.38;5355626;27;20035;-68
2022/04/18 11:22:23;;;;;;;3.88;2.20;;;;;;;17.84;31.51;101639.41;5348309;27;20180;-67
2022/04/18 11:24:56;;;;;;;5.65;2.63;;;;;;;17.98;28.85;101638.06;5348880;27;20037;-67
2022/04/18 11:27:27;;;;;;;3.95;2.45;;;;;;;18.09;28.95;101634.38;5353865;27;20022;-69
2022/04/18 11:30:14;;;;;;;5.15;2.88;;;;;;;18.05;31.14;101633.81;5355645;27;20473;-69
2022/04/18 11:32:46;;;;;;;4.97;2.75;;;;;;;18.19;29.21;101627.91;5347360;27;20032;-69
2022/04/18 11:35:18;;;;;;;6.18;2.88;;;;;;;18.31;29.40;101639.38;5348446;27;20101;-69
2022/04/18 11:37:49;;;;;;;5.88;2.97;;;;;;;18.30;29.98;101626.88;5349177;27;20023;-69
2022/04/18 11:40:20;;;;;;;6.63;3.20;;;;;;;18.18;30.12;101626.22;5351854;27;20117;-69
2022/04/18 11:42:51;;;;;;;5.70;3.17;;;;;;;18.50;29.11;101622.22;5349388;27;20380;-69
2022/04/18 11:45:25;;;;;;;6.00;3.80;;;;;;;18.43;27.98;101631.94;5352607;27;20460;-69
2022/04/18 11:47:56;;;;;;;5.28;2.85;;;;;;;18.34;29.36;101633.69;5351252;27;20031;-68
2022/04/18 11:50:28;;;;;;;3.92;2.80;;;;;;;18.42;29.11;101624.81;5353903;27;20046;-69
2022/04/18 11:53:07;;;;;;;4.97;2.53;;;;;;;18.26;28.89;101627.34;5348019;27;20356;-68
2022/04/18 11:55:44;;;;;;;4.45;2.50;;;;;;;18.34;30.25;101624.72;5346665;27;20133;-69
2022/04/18 11:58:21;;;;;;;5.88;2.78;;;;;;;18.22;29.38;101624.91;5355284;27;20022;-69
2022/04/18 12:06:49;;;;;;;6.07;2.40;;;;;;;18.56;30.12;101616.25;5350756;27;20031;-69
2022/04/18 12:09:21;;;;;;;3.80;2.38;;;;;;;18.53;28.81;101615.69;5360416;27;20484;-69
2022/04/18 12:11:53;;;;;;;4.07;2.63;;;;;;;18.69;27.26;101615.84;5352422;27;20061;-68
2022/04/18 12:14:30;;;;;;;6.10;3.08;;;;;;;18.64;28.01;101609.19;5349853;27;20030;-68